Time,TemperatureF,DewpointF,PressureIn,WindDirection,WindDirectionDegrees,WindSpeedMPH,WindSpeedGustMPH,Humidity,HourlyPrecipIn,Conditions,Clouds,dailyrainin,SoftwareType,DateUTC
2013-03-31 00:02:00,54.0,52.0,30.08,South,182,0.0,0.0,93,0.00,,,0.00,,2013-03-31 07:02:00,
2013-03-31 00:12:00,54.0,52.0,30.08,South,182,0.0,0.0,93,0.00,,,0.00,,2013-03-31 07:12:00,
2013-03-31 00:22:00,54.0,52.0,30.08,South,182,0.0,1.0,92,0.00,,,0.00,,2013-03-31 07:22:00,
2013-03-31 00:32:00,54.0,52.0,30.08,South,182,0.0,0.0,93,0.00,,,0.00,,2013-03-31 07:32:00,
2013-03-31 00:42:00,54.0,52.0,30.08,South,182,0.0,0.0,93,0.00,,,0.00,,2013-03-31 07:42:00,
2013-03-31 00:52:00,54.0,52.0,30.08,South,182,0.0,0.0,93,0.00,,,0.00,,2013-03-31 07:52:00,
2013-03-31 01:02:00,54.0,52.0,30.07,SE,140,1.0,2.0,92,0.00,,,0.00,,2013-03-31 08:02:00,
2013-03-31 01:12:00,54.0,52.0,30.07,SE,140,1.0,2.0,92,0.00,,,0.00,,2013-03-31 08:12:00,
2013-03-31 01:22:00,54.0,52.0,30.07,East,93,0.0,2.0,92,0.00,,,0.00,,2013-03-31 08:22:00,
2013-03-31 01:32:00,53.0,51.0,30.07,East,93,0.0,2.0,92,0.00,,,0.00,,2013-03-31 08:32:00,
2013-03-31 01:42:00,53.0,51.0,30.07,East,93,0.0,2.0,92,0.00,,,0.00,,2013-03-31 08:42:00,
2013-03-31 01:52:00,53.0,51.0,30.08,East,93,0.0,0.0,93,0.00,,,0.00,,2013-03-31 08:52:00,
2013-03-31 02:01:00,53.0,51.0,30.08,East,93,0.0,1.0,93,0.00,,,0.00,,2013-03-31 09:01:00,
2013-03-31 02:12:00,53.0,51.0,30.08,East,93,0.0,1.0,93,0.00,,,0.00,,2013-03-31 09:12:00,
2013-03-31 02:21:00,53.0,51.0,30.08,East,93,0.0,0.0,94,0.00,,,0.00,,2013-03-31 09:21:00,
2013-03-31 02:32:00,54.0,52.0,30.08,NNW,339,1.0,4.0,94,0.00,,,0.00,,2013-03-31 09:32:00,
2013-03-31 02:42:00,54.0,52.0,30.08,NNW,339,1.0,4.0,94,0.00,,,0.00,,2013-03-31 09:42:00,
2013-03-31 02:52:00,54.0,52.0,30.07,NNE,13,2.0,4.0,94,0.00,,,0.00,,2013-03-31 09:52:00,
2013-03-31 03:03:00,53.0,51.0,30.06,NNE,13,0.0,2.0,93,0.00,,,0.00,,2013-03-31 10:03:00,
2013-03-31 03:12:00,53.0,51.0,30.06,NNE,13,0.0,2.0,93,0.00,,,0.00,,2013-03-31 10:12:00,
2013-03-31 03:23:00,52.0,50.0,30.06,North,11,0.0,2.0,94,0.00,,,0.00,,2013-03-31 10:23:00,
2013-03-31 03:32:00,52.0,50.0,30.06,NNE,20,0.0,2.0,94,0.00,,,0.00,,2013-03-31 10:32:00,
2013-03-31 03:42:00,52.0,50.0,30.06,NNE,20,0.0,2.0,94,0.00,,,0.00,,2013-03-31 10:42:00,
2013-03-31 03:52:00,52.0,50.0,30.06,NNE,20,0.0,1.0,94,0.00,,,0.00,,2013-03-31 10:52:00,
2013-03-31 04:02:00,51.0,50.0,30.05,NNE,20,0.0,0.0,95,0.00,,,0.00,,2013-03-31 11:02:00,
2013-03-31 04:12:00,51.0,50.0,30.05,NNE,20,0.0,0.0,95,0.00,,,0.00,,2013-03-31 11:12:00,
2013-03-31 04:22:00,52.0,51.0,30.05,NNE,20,0.0,1.0,96,0.00,,,0.00,,2013-03-31 11:22:00,
2013-03-31 04:32:00,52.0,51.0,30.05,NNE,20,0.0,0.0,96,0.00,,,0.00,,2013-03-31 11:32:00,
2013-03-31 04:42:00,52.0,51.0,30.05,NNE,20,0.0,0.0,96,0.00,,,0.00,,2013-03-31 11:42:00,
2013-03-31 04:52:00,52.0,51.0,30.05,NNE,20,0.0,1.0,95,0.00,,,0.00,,2013-03-31 11:52:00,
2013-03-31 05:02:00,52.0,51.0,30.05,NNE,28,0.0,3.0,96,0.00,,,0.00,,2013-03-31 12:02:00,
2013-03-31 05:12:00,52.0,51.0,30.05,NNE,28,0.0,3.0,96,0.00,,,0.00,,2013-03-31 12:12:00,
2013-03-31 05:22:00,52.0,51.0,30.05,NNE,32,0.0,3.0,95,0.00,,,0.00,,2013-03-31 12:22:00,
2013-03-31 05:32:00,52.0,51.0,30.05,NNE,32,0.0,1.0,95,0.00,,,0.00,,2013-03-31 12:32:00,
2013-03-31 05:42:00,52.0,51.0,30.05,NNE,32,0.0,1.0,95,0.00,,,0.00,,2013-03-31 12:42:00,
2013-03-31 05:52:00,51.0,50.0,30.05,NNE,32,0.0,1.0,95,0.00,,,0.00,,2013-03-31 12:52:00,
2013-03-31 06:02:00,51.0,50.0,30.05,South,187,0.0,3.0,95,0.00,,,0.00,,2013-03-31 13:02:00,
2013-03-31 06:12:00,51.0,50.0,30.05,South,187,0.0,3.0,95,0.00,,,0.00,,2013-03-31 13:12:00,
2013-03-31 06:22:00,51.0,50.0,30.06,West,273,0.0,3.0,95,0.00,,,0.00,,2013-03-31 13:22:00,
2013-03-31 06:32:00,51.0,50.0,30.06,North,355,1.0,3.0,95,0.00,,,0.00,,2013-03-31 13:32:00,
2013-03-31 06:42:00,51.0,50.0,30.06,North,355,1.0,3.0,95,0.00,,,0.00,,2013-03-31 13:42:00,
2013-03-31 06:52:00,52.0,51.0,30.06,North,355,0.0,1.0,95,0.00,,,0.00,,2013-03-31 13:52:00,
2013-03-31 07:02:00,52.0,51.0,30.07,North,355,0.0,2.0,95,0.00,,,0.00,,2013-03-31 14:02:00,
2013-03-31 07:11:00,52.0,51.0,30.07,North,355,0.0,2.0,95,0.00,,,0.00,,2013-03-31 14:11:00,
2013-03-31 07:22:00,52.0,50.0,30.07,NNE,15,0.0,1.0,94,0.00,,,0.00,,2013-03-31 14:22:00,
2013-03-31 07:32:00,53.0,51.0,30.07,NNE,15,0.0,2.0,93,0.00,,,0.00,,2013-03-31 14:32:00,
2013-03-31 07:42:00,53.0,51.0,30.07,NNE,15,0.0,2.0,93,0.00,,,0.00,,2013-03-31 14:42:00,
2013-03-31 07:52:00,53.0,51.0,30.08,NNE,15,0.0,1.0,93,0.00,,,0.00,,2013-03-31 14:52:00,
2013-03-31 08:02:00,54.0,52.0,30.07,ENE,57,0.0,2.0,93,0.00,,,0.00,,2013-03-31 15:02:00,
2013-03-31 08:12:00,54.0,52.0,30.07,ENE,57,0.0,2.0,93,0.00,,,0.00,,2013-03-31 15:12:00,
2013-03-31 08:22:00,54.0,52.0,30.07,SSE,148,0.0,3.0,92,0.00,,,0.00,,2013-03-31 15:22:00,
2013-03-31 08:33:00,55.0,52.0,30.08,SSE,148,0.0,2.0,91,0.00,,,0.00,,2013-03-31 15:33:00,
2013-03-31 08:43:00,55.0,52.0,30.08,SSE,148,0.0,2.0,91,0.00,,,0.00,,2013-03-31 15:43:00,
2013-03-31 08:53:00,56.0,53.0,30.07,SE,143,1.0,3.0,89,0.00,,,0.00,,2013-03-31 15:53:00,
2013-03-31 09:02:00,58.0,54.0,30.07,SE,143,0.0,3.0,86,0.00,,,0.00,,2013-03-31 16:02:00,
2013-03-31 09:13:00,58.0,54.0,30.07,SE,143,0.0,3.0,86,0.00,,,0.00,,2013-03-31 16:13:00,
2013-03-31 09:22:00,60.0,54.0,30.07,ESE,109,2.0,4.0,81,0.00,,,0.00,,2013-03-31 16:22:00,
2013-03-31 09:32:00,63.0,55.0,30.07,ESE,109,0.0,4.0,75,0.00,,,0.00,,2013-03-31 16:32:00,
2013-03-31 09:42:00,63.0,55.0,30.07,ESE,109,0.0,4.0,75,0.00,,,0.00,,2013-03-31 16:42:00,
2013-03-31 09:52:00,62.0,55.0,30.08,SSW,202,2.0,8.0,77,0.00,,,0.00,,2013-03-31 16:52:00,
2013-03-31 10:02:00,64.0,55.0,30.08,WSW,244,3.0,10.0,73,0.00,,,0.00,,2013-03-31 17:02:00,
2013-03-31 10:12:00,64.0,55.0,30.08,WSW,244,3.0,10.0,73,0.00,,,0.00,,2013-03-31 17:12:00,
2013-03-31 10:22:00,63.0,56.0,30.08,SSW,198,4.0,9.0,77,0.00,,,0.00,,2013-03-31 17:22:00,
2013-03-31 10:32:00,62.0,55.0,30.09,SSW,198,5.0,11.0,77,0.00,,,0.00,,2013-03-31 17:32:00,
2013-03-31 10:42:00,62.0,55.0,30.09,SSW,198,5.0,11.0,77,0.00,,,0.00,,2013-03-31 17:42:00,
2013-03-31 10:52:00,63.0,55.0,30.09,SSW,195,3.0,7.0,76,0.00,,,0.00,,2013-03-31 17:52:00,
2013-03-31 11:02:00,65.0,57.0,30.09,SE,128,3.0,7.0,75,0.00,,,0.00,,2013-03-31 18:02:00,
2013-03-31 11:12:00,65.0,57.0,30.09,SE,128,3.0,7.0,75,0.00,,,0.00,,2013-03-31 18:12:00,
2013-03-31 11:22:00,63.0,55.0,30.09,SSE,167,4.0,9.0,76,0.00,,,0.00,,2013-03-31 18:22:00,
2013-03-31 11:32:00,64.0,55.0,30.09,South,183,6.0,11.0,73,0.00,,,0.00,,2013-03-31 18:32:00,
2013-03-31 11:42:00,64.0,55.0,30.09,South,183,6.0,11.0,73,0.00,,,0.00,,2013-03-31 18:42:00,
2013-03-31 11:52:00,66.0,57.0,30.09,SW,234,3.0,9.0,72,0.00,,,0.00,,2013-03-31 18:52:00,
2013-03-31 12:02:00,65.0,56.0,30.09,SSW,200,2.0,11.0,72,0.00,,,0.00,,2013-03-31 19:02:00,
2013-03-31 12:12:00,65.0,56.0,30.09,SSW,200,2.0,11.0,72,0.00,,,0.00,,2013-03-31 19:12:00,
2013-03-31 12:22:00,65.0,55.0,30.09,SW,234,5.0,9.0,71,0.00,,,0.00,,2013-03-31 19:22:00,
2013-03-31 12:32:00,64.0,55.0,30.09,SSW,207,6.0,11.0,72,0.00,,,0.00,,2013-03-31 19:32:00,
2013-03-31 12:42:00,64.0,55.0,30.09,SSW,207,6.0,11.0,72,0.00,,,0.00,,2013-03-31 19:42:00,
2013-03-31 12:53:00,65.0,55.0,30.08,SSW,193,7.0,12.0,71,0.00,,,0.00,,2013-03-31 19:53:00,
2013-03-31 13:02:00,65.0,55.0,30.08,South,176,5.0,11.0,70,0.00,,,0.00,,2013-03-31 20:02:00,
2013-03-31 13:12:00,65.0,55.0,30.08,South,176,5.0,11.0,70,0.00,,,0.00,,2013-03-31 20:12:00,
2013-03-31 13:22:00,66.0,55.0,30.08,South,179,3.0,12.0,68,0.00,,,0.00,,2013-03-31 20:22:00,
2013-03-31 13:33:00,67.0,55.0,30.07,SSE,153,6.0,10.0,66,0.00,,,0.00,,2013-03-31 20:33:00,
2013-03-31 13:52:00,68.0,56.0,30.06,SW,230,5.0,10.0,66,0.00,,,0.00,,2013-03-31 20:52:00,
2013-03-31 14:02:00,65.0,56.0,30.06,South,186,8.0,13.0,72,0.00,,,0.00,,2013-03-31 21:02:00,
2013-03-31 14:12:00,65.0,56.0,30.06,South,186,8.0,13.0,72,0.00,,,0.00,,2013-03-31 21:12:00,
2013-03-31 14:22:00,65.0,56.0,30.06,SSW,202,7.0,14.0,73,0.00,,,0.00,,2013-03-31 21:22:00,
2013-03-31 14:33:00,66.0,56.0,30.05,SW,231,6.0,12.0,71,0.00,,,0.00,,2013-03-31 21:33:00,
2013-03-31 14:43:00,66.0,56.0,30.05,SW,231,6.0,12.0,71,0.00,,,0.00,,2013-03-31 21:43:00,
2013-03-31 14:53:00,65.0,56.0,30.04,SW,219,6.0,14.0,73,0.00,,,0.00,,2013-03-31 21:53:00,
2013-03-31 15:03:00,65.0,56.0,30.04,SSW,192,6.0,13.0,74,0.00,,,0.00,,2013-03-31 22:03:00,
2013-03-31 15:13:00,65.0,56.0,30.04,SSW,192,6.0,13.0,74,0.00,,,0.00,,2013-03-31 22:13:00,
2013-03-31 15:23:00,65.0,56.0,30.04,South,182,8.0,15.0,72,0.00,,,0.00,,2013-03-31 22:23:00,
2013-03-31 15:33:00,64.0,56.0,30.04,SW,228,6.0,11.0,74,0.00,,,0.00,,2013-03-31 22:33:00,
2013-03-31 15:42:00,64.0,56.0,30.04,SW,228,6.0,11.0,74,0.00,,,0.00,,2013-03-31 22:42:00,
2013-03-31 15:52:00,64.0,56.0,30.04,West,276,5.0,13.0,76,0.00,,,0.00,,2013-03-31 22:52:00,
2013-03-31 16:02:00,66.0,57.0,30.04,WSW,253,6.0,12.0,72,0.00,,,0.00,,2013-03-31 23:02:00,
2013-03-31 16:12:00,66.0,57.0,30.04,WSW,253,6.0,12.0,72,0.00,,,0.00,,2013-03-31 23:12:00,
2013-03-31 16:22:00,64.0,56.0,30.04,WSW,246,8.0,13.0,75,0.00,,,0.00,,2013-03-31 23:22:00,
2013-03-31 16:32:00,63.0,56.0,30.04,WSW,238,5.0,11.0,79,0.00,,,0.00,,2013-03-31 23:32:00,
2013-03-31 16:42:00,63.0,56.0,30.04,WSW,238,5.0,11.0,79,0.00,,,0.00,,2013-03-31 23:42:00,
2013-03-31 16:52:00,62.0,56.0,30.04,SSW,209,6.0,11.0,80,0.00,,,0.00,,2013-03-31 23:52:00,
2013-03-31 17:02:00,62.0,56.0,30.04,SSW,209,6.0,11.0,80,0.00,,,0.00,,2013-04-01 00:02:00,
2013-03-31 17:12:00,62.0,56.0,30.04,SSW,209,6.0,11.0,80,0.00,,,0.00,,2013-04-01 00:12:00,
2013-03-31 17:22:00,62.0,56.0,30.03,SW,234,7.0,12.0,82,0.00,,,0.00,,2013-04-01 00:22:00,
2013-03-31 17:32:00,61.0,56.0,30.03,SW,234,5.0,10.0,84,0.00,,,0.00,,2013-04-01 00:32:00,
2013-03-31 17:42:00,61.0,56.0,30.03,SW,234,5.0,10.0,84,0.00,,,0.00,,2013-04-01 00:42:00,
2013-03-31 18:02:00,61.0,56.0,30.03,SW,226,4.0,9.0,84,0.00,,,0.00,,2013-04-01 01:02:00,
2013-03-31 18:11:00,61.0,56.0,30.03,SW,226,4.0,9.0,84,0.00,,,0.00,,2013-04-01 01:11:00,
2013-03-31 18:22:00,61.0,56.0,30.03,SW,234,5.0,9.0,84,0.00,,,0.00,,2013-04-01 01:22:00,
2013-03-31 18:32:00,60.0,55.0,30.03,SW,231,6.0,10.0,85,0.00,,,0.00,,2013-04-01 01:32:00,
2013-03-31 18:42:00,60.0,55.0,30.03,SW,231,6.0,10.0,85,0.00,,,0.00,,2013-04-01 01:42:00,
2013-03-31 18:52:00,60.0,56.0,30.03,WSW,250,5.0,10.0,87,0.00,,,0.00,,2013-04-01 01:52:00,
2013-03-31 19:02:00,60.0,56.0,30.03,SW,234,4.0,8.0,87,0.00,,,0.00,,2013-04-01 02:02:00,
2013-03-31 19:12:00,60.0,56.0,30.03,SW,234,4.0,8.0,87,0.00,,,0.00,,2013-04-01 02:12:00,
2013-03-31 19:22:00,60.0,56.0,30.03,SW,221,5.0,9.0,88,0.00,,,0.00,,2013-04-01 02:22:00,
2013-03-31 19:32:00,59.0,55.0,30.03,West,265,5.0,9.0,88,0.00,,,0.00,,2013-04-01 02:32:00,
2013-03-31 19:42:00,59.0,55.0,30.03,West,265,5.0,9.0,88,0.00,,,0.00,,2013-04-01 02:42:00,
2013-03-31 19:52:00,59.0,56.0,30.03,West,259,2.0,7.0,89,0.00,,,0.00,,2013-04-01 02:52:00,
2013-03-31 20:02:00,59.0,55.0,30.03,West,275,1.0,6.0,88,0.00,,,0.00,,2013-04-01 03:02:00,
2013-03-31 20:11:00,59.0,55.0,30.03,West,275,1.0,6.0,88,0.00,,,0.00,,2013-04-01 03:11:00,
2013-03-31 20:22:00,59.0,55.0,30.03,West,259,2.0,5.0,87,0.00,,,0.00,,2013-04-01 03:22:00,
2013-03-31 20:33:00,59.0,55.0,30.04,West,263,2.0,6.0,87,0.00,,,0.00,,2013-04-01 03:33:00,
2013-03-31 20:43:00,59.0,55.0,30.04,West,263,2.0,6.0,87,0.00,,,0.00,,2013-04-01 03:43:00,
2013-03-31 20:52:00,59.0,55.0,30.04,WSW,255,1.0,4.0,87,0.00,,,0.00,,2013-04-01 03:52:00,
2013-03-31 21:02:00,59.0,55.0,30.05,WNW,296,3.0,6.0,87,0.00,,,0.00,,2013-04-01 04:02:00,
2013-03-31 21:12:00,59.0,55.0,30.05,WNW,296,3.0,6.0,87,0.00,,,0.00,,2013-04-01 04:12:00,
2013-03-31 21:23:00,59.0,55.0,30.05,NW,313,2.0,7.0,87,0.00,,,0.00,,2013-04-01 04:23:00,
2013-03-31 21:32:00,58.0,54.0,30.06,WNW,283,3.0,5.0,87,0.00,,,0.00,,2013-04-01 04:32:00,
2013-03-31 21:42:00,58.0,54.0,30.06,WNW,283,3.0,5.0,87,0.00,,,0.00,,2013-04-01 04:42:00,
2013-03-31 21:52:00,58.0,54.0,30.06,WNW,283,3.0,5.0,87,0.00,,,0.00,,2013-04-01 04:52:00,
2013-03-31 22:02:00,58.0,54.0,30.07,West,276,4.0,8.0,87,0.00,,,0.00,,2013-04-01 05:02:00,
2013-03-31 22:12:00,58.0,54.0,30.07,West,276,4.0,8.0,87,0.00,,,0.00,,2013-04-01 05:12:00,
2013-03-31 22:22:00,58.0,54.0,30.07,WNW,290,2.0,7.0,87,0.00,,,0.00,,2013-04-01 05:22:00,
2013-03-31 22:32:00,58.0,54.0,30.08,West,271,3.0,8.0,87,0.00,,,0.00,,2013-04-01 05:32:00,
2013-03-31 22:42:00,58.0,54.0,30.08,West,271,3.0,8.0,87,0.00,,,0.00,,2013-04-01 05:42:00,
2013-03-31 22:52:00,58.0,54.0,30.08,WNW,284,3.0,7.0,88,0.00,,,0.00,,2013-04-01 05:52:00,
2013-03-31 23:02:00,57.0,53.0,30.08,West,281,3.0,8.0,88,0.00,,,0.00,,2013-04-01 06:02:00,
2013-03-31 23:12:00,57.0,53.0,30.08,West,281,3.0,8.0,88,0.00,,,0.00,,2013-04-01 06:12:00,
2013-03-31 23:22:00,57.0,54.0,30.08,WNW,300,6.0,11.0,89,0.00,,,0.00,,2013-04-01 06:22:00,
2013-03-31 23:33:00,56.0,53.0,30.08,West,269,4.0,10.0,89,0.00,,,0.00,,2013-04-01 06:33:00,
2013-03-31 23:42:00,56.0,53.0,30.08,West,269,4.0,10.0,89,0.00,,,0.00,,2013-04-01 06:42:00,
2013-03-31 23:52:00,56.0,53.0,30.07,NW,317,2.0,6.0,89,0.00,,,0.00,,2013-04-01 06:52:00,